createdAt,value
2024-02-07T00:01:26.202Z,3.53
2024-02-07T00:03:52.930Z,4.10
2024-02-07T00:06:19.900Z,3.03
2024-02-07T00:08:46.517Z,3.50
2024-02-07T00:11:13.053Z,3.23
2024-02-07T00:13:39.738Z,3.92
2024-02-07T00:16:06.720Z,3.38
2024-02-07T00:18:33.277Z,3.88
2024-02-07T00:20:59.779Z,2.97
2024-02-07T00:23:26.233Z,4.13
2024-02-07T00:25:52.844Z,3.05
2024-02-07T00:28:20.681Z,4.22
2024-02-07T00:30:47.253Z,3.53
2024-02-07T00:33:13.908Z,3.92
2024-02-07T00:35:40.443Z,3.80
2024-02-07T00:38:06.903Z,3.20
2024-02-07T00:40:34.376Z,3.42
2024-02-07T00:43:01.023Z,3.60
2024-02-07T00:45:29.525Z,3.47
2024-02-07T00:47:56.012Z,3.67
2024-02-07T00:50:22.928Z,3.90
2024-02-07T00:52:49.629Z,4.18
2024-02-07T00:55:16.790Z,3.85
2024-02-07T00:57:43.314Z,3.40
2024-02-07T01:00:15.136Z,3.23
2024-02-07T01:02:42.939Z,3.65
2024-02-07T01:05:10.594Z,3.72
2024-02-07T01:07:37.487Z,4.40
2024-02-07T01:10:04.834Z,3.42
2024-02-07T01:12:31.630Z,3.80
2024-02-07T01:14:58.137Z,3.17
2024-02-07T01:17:24.695Z,3.70
2024-02-07T01:19:54.544Z,2.95
2024-02-07T01:22:21.387Z,3.75
2024-02-07T01:24:48.041Z,3.90
2024-02-07T01:27:15.666Z,3.75
2024-02-07T01:29:42.613Z,3.65
2024-02-07T01:32:09.271Z,3.22
2024-02-07T01:34:35.875Z,4.10
2024-02-07T01:37:02.439Z,3.10
2024-02-07T01:39:28.896Z,3.22
2024-02-07T01:41:58.246Z,2.47
2024-02-07T01:44:25.509Z,3.60
2024-02-07T01:46:53.491Z,3.05
2024-02-07T01:49:20.695Z,3.00
2024-02-07T01:51:49.678Z,3.53
2024-02-07T01:54:16.304Z,3.67
2024-02-07T01:56:43.285Z,3.78
2024-02-07T01:59:10.231Z,3.70
2024-02-07T02:01:37.858Z,4.10
2024-02-07T02:04:05.083Z,3.97
2024-02-07T02:06:31.634Z,3.97
2024-02-07T02:08:59.236Z,3.90
2024-02-07T02:11:33.106Z,3.95
2024-02-07T02:14:00.711Z,4.60
2024-02-07T02:16:27.494Z,4.28
2024-02-07T02:18:54.558Z,5.55
2024-02-07T02:21:25.535Z,4.22
2024-02-07T02:24:30.687Z,4.07
2024-02-07T02:27:31.319Z,5.10
2024-02-07T02:30:00.618Z,3.60
2024-02-07T02:32:28.629Z,3.35
2024-02-07T02:34:55.825Z,4.00
2024-02-07T02:37:23.127Z,3.60
2024-02-07T02:39:52.636Z,4.03
2024-02-07T02:42:19.142Z,3.78
2024-02-07T02:44:45.659Z,3.50
2024-02-07T02:47:14.218Z,3.13
2024-02-07T02:49:40.793Z,3.33
2024-02-07T02:52:07.955Z,3.77
2024-02-07T02:54:35.816Z,3.40
2024-02-07T02:57:03.876Z,3.35
2024-02-07T02:59:31.360Z,4.30
2024-02-07T03:01:57.999Z,3.47
2024-02-07T03:04:27.245Z,3.13
2024-02-07T03:07:14.846Z,3.65
2024-02-07T03:09:50.003Z,3.75
2024-02-07T03:12:17.149Z,2.85
2024-02-07T03:14:43.865Z,3.33
2024-02-07T03:17:10.350Z,4.00
2024-02-07T03:19:36.923Z,4.07
2024-02-07T03:22:03.511Z,3.88
2024-02-07T03:24:30.746Z,3.72
2024-02-07T03:26:57.281Z,3.50
2024-02-07T03:29:23.854Z,2.80
2024-02-07T03:31:50.424Z,3.15
2024-02-07T03:34:17.139Z,3.83
2024-02-07T03:36:43.671Z,3.30
2024-02-07T03:39:10.833Z,3.95
2024-02-07T03:41:37.597Z,3.20
2024-02-07T03:44:09.933Z,4.93
2024-02-07T03:46:36.493Z,3.97
2024-02-07T03:49:04.208Z,3.83
2024-02-07T03:51:30.979Z,3.72
2024-02-07T03:53:57.416Z,4.00
2024-02-07T03:56:23.926Z,3.92
2024-02-07T03:58:50.477Z,4.10
2024-02-07T04:01:19.498Z,4.00
2024-02-07T04:03:48.298Z,4.30
2024-02-07T04:06:15.092Z,4.70
2024-02-07T04:08:42.059Z,4.22
2024-02-07T04:11:09.082Z,4.80
2024-02-07T04:13:35.616Z,5.00
2024-02-07T04:16:20.826Z,4.68
2024-02-07T04:19:06.864Z,4.87
2024-02-07T04:21:51.852Z,4.40
2024-02-07T04:24:36.949Z,5.20
2024-02-07T04:27:22.224Z,4.22
2024-02-07T04:30:07.288Z,5.53
2024-02-07T04:32:52.319Z,3.70
2024-02-07T04:35:37.268Z,5.03
2024-02-07T04:38:22.290Z,4.82
2024-02-07T04:41:07.549Z,3.95
2024-02-07T04:43:52.588Z,5.97
2024-02-07T04:46:38.182Z,4.87
2024-02-07T04:49:23.486Z,5.13
2024-02-07T04:52:08.927Z,3.97
2024-02-07T04:54:53.823Z,4.57
2024-02-07T04:57:38.629Z,4.93
2024-02-07T05:00:24.292Z,5.23
2024-02-07T05:03:09.198Z,5.85
2024-02-07T05:05:54.468Z,5.90
2024-02-07T05:08:39.717Z,5.10
2024-02-07T05:11:25.789Z,5.70
2024-02-07T05:14:10.943Z,5.63
2024-02-07T05:16:37.532Z,6.15
2024-02-07T05:19:04.109Z,5.60
2024-02-07T05:21:31.189Z,5.82
2024-02-07T05:23:57.675Z,6.70
2024-02-07T05:26:24.168Z,5.60
2024-02-07T05:28:50.682Z,6.18
2024-02-07T05:31:17.271Z,5.72
2024-02-07T05:33:44.034Z,5.47
2024-02-07T05:36:10.697Z,5.47
2024-02-07T05:38:37.166Z,5.13
2024-02-07T05:41:03.839Z,4.65
2024-02-07T05:43:30.611Z,5.53
2024-02-07T05:45:57.207Z,4.47
2024-02-07T05:48:23.792Z,3.75
2024-02-07T05:50:50.300Z,3.90
2024-02-07T05:53:16.836Z,4.00
2024-02-07T05:55:44.455Z,3.95
2024-02-07T05:58:11.126Z,3.40
2024-02-07T06:00:37.663Z,4.20
2024-02-07T06:03:07.032Z,4.00
2024-02-07T06:05:34.298Z,3.40
2024-02-07T06:08:00.896Z,3.08
2024-02-07T06:10:27.810Z,3.10
2024-02-07T06:12:54.411Z,3.10
2024-02-07T06:15:20.924Z,3.20
2024-02-07T06:17:47.506Z,3.10
2024-02-07T06:20:14.377Z,3.40
2024-02-07T06:22:46.769Z,3.28
2024-02-07T06:25:14.980Z,3.20
2024-02-07T06:27:41.621Z,3.10
2024-02-07T06:30:08.551Z,2.65
2024-02-07T06:32:35.980Z,3.72
2024-02-07T06:35:02.544Z,2.70
2024-02-07T06:37:30.195Z,2.92
2024-02-07T06:39:56.824Z,2.57
2024-02-07T06:42:23.415Z,2.60
2024-02-07T06:44:50.026Z,2.58
2024-02-07T06:47:16.530Z,3.53
2024-02-07T06:49:43.134Z,3.00
2024-02-07T06:52:09.677Z,2.83
2024-02-07T06:54:36.210Z,2.75
2024-02-07T06:57:03.093Z,2.50
2024-02-07T06:59:29.632Z,2.50
2024-02-07T07:01:56.561Z,2.60
2024-02-07T07:04:23.078Z,2.83
2024-02-07T07:06:49.597Z,2.47
2024-02-07T07:09:16.321Z,2.38
2024-02-07T07:11:42.856Z,2.58
2024-02-07T07:14:09.518Z,2.30
2024-02-07T07:16:36.324Z,2.23
2024-02-07T07:19:03.219Z,2.20
2024-02-07T07:21:31.611Z,2.40
2024-02-07T07:23:59.569Z,2.67
2024-02-07T07:26:26.098Z,2.50
2024-02-07T07:28:55.325Z,3.00
2024-02-07T07:31:21.980Z,2.97
2024-02-07T07:33:48.849Z,2.78
2024-02-07T07:36:19.076Z,3.33
2024-02-07T07:38:45.663Z,3.22
2024-02-07T07:41:12.248Z,2.67
2024-02-07T07:43:38.739Z,2.40
2024-02-07T07:46:05.261Z,2.50
2024-02-07T07:48:32.064Z,3.42
2024-02-07T07:50:58.754Z,3.95
2024-02-07T07:53:25.255Z,3.47
2024-02-07T07:55:51.808Z,2.53
2024-02-07T07:58:18.537Z,3.80
2024-02-07T08:00:46.696Z,2.75
2024-02-07T08:03:15.139Z,2.47
2024-02-07T08:05:43.141Z,2.10
2024-02-07T08:08:10.064Z,2.63
2024-02-07T08:10:37.697Z,2.83
2024-02-07T08:13:04.956Z,4.20
2024-02-07T08:15:31.518Z,2.58
2024-02-07T08:17:58.515Z,2.00
2024-02-07T08:20:25.768Z,2.03
2024-02-07T08:22:52.948Z,1.80
2024-02-07T08:25:22.270Z,2.10
2024-02-07T08:27:49.575Z,2.08
2024-02-07T08:30:16.134Z,1.80
2024-02-07T08:32:43.638Z,1.98
2024-02-07T08:35:10.563Z,2.22
2024-02-07T08:37:38.527Z,1.95
2024-02-07T08:40:05.653Z,2.03
2024-02-07T08:42:32.346Z,1.90
2024-02-07T08:44:58.855Z,1.65
2024-02-07T08:47:25.344Z,2.03
2024-02-07T08:49:51.910Z,1.73
2024-02-07T08:52:18.573Z,1.85
2024-02-07T08:54:45.502Z,2.00
2024-02-07T08:57:12.113Z,1.73
2024-02-07T08:59:38.675Z,2.30
2024-02-07T09:02:08.553Z,1.98
2024-02-07T09:04:35.295Z,2.05
2024-02-07T09:07:02.067Z,1.83
2024-02-07T09:09:28.642Z,1.70
2024-02-07T09:11:55.160Z,1.77
2024-02-07T09:14:21.614Z,2.20
2024-02-07T09:16:48.095Z,1.48
2024-02-07T09:19:15.194Z,1.50
2024-02-07T09:21:41.723Z,1.70
2024-02-07T09:24:08.375Z,1.50
2024-02-07T09:26:34.898Z,1.58
2024-02-07T09:29:01.878Z,1.77
2024-02-07T09:31:28.748Z,1.30
2024-02-07T09:33:55.390Z,1.83
2024-02-07T09:36:22.086Z,1.70
2024-02-07T09:38:48.699Z,1.35
2024-02-07T09:41:18.980Z,1.40
2024-02-07T09:43:46.933Z,1.83
2024-02-07T09:46:16.181Z,1.35
2024-02-07T09:48:44.532Z,1.27
2024-02-07T09:51:16.014Z,1.55
2024-02-07T09:53:45.958Z,1.60
2024-02-07T09:56:13.204Z,1.60
2024-02-07T09:58:40.923Z,1.70
2024-02-07T10:01:10.493Z,4.70
2024-02-07T10:03:40.787Z,2.75
2024-02-07T10:06:08.371Z,1.70
2024-02-07T10:08:35.832Z,1.80
2024-02-07T10:11:03.717Z,2.58
2024-02-07T10:13:30.550Z,2.72
2024-02-07T10:15:58.618Z,2.88
2024-02-07T10:18:25.219Z,1.73
2024-02-07T10:20:53.802Z,1.57
2024-02-07T10:23:21.544Z,1.70
2024-02-07T10:25:55.932Z,1.60
2024-02-07T10:28:26.099Z,2.80
2024-02-07T10:31:01.821Z,1.50
2024-02-07T10:36:08.539Z,1.50
2024-02-07T10:38:36.389Z,1.75
2024-02-07T10:41:04.176Z,1.38
2024-02-07T10:43:37.785Z,1.50
2024-02-07T10:46:11.651Z,1.60
2024-02-07T10:48:39.473Z,1.63
2024-02-07T10:51:06.670Z,1.60
2024-02-07T10:53:36.235Z,1.70
2024-02-07T10:56:05.833Z,1.60
2024-02-07T10:58:33.751Z,1.40
2024-02-07T11:01:01.334Z,1.70
2024-02-07T11:03:31.428Z,2.08
2024-02-07T11:05:59.161Z,1.65
2024-02-07T11:08:27.973Z,1.73
2024-02-07T11:10:55.570Z,1.43
2024-02-07T11:13:22.197Z,1.90
2024-02-07T11:15:48.774Z,1.77
2024-02-07T11:18:15.408Z,2.00
2024-02-07T11:20:45.226Z,2.00
2024-02-07T11:23:17.962Z,1.70
2024-02-07T11:25:46.732Z,1.83
2024-02-07T11:28:13.571Z,1.65
2024-02-07T11:30:40.941Z,1.70
2024-02-07T11:33:11.128Z,1.60
2024-02-07T11:35:37.887Z,2.00
2024-02-07T11:38:04.837Z,1.30
2024-02-07T11:40:42.699Z,1.77
2024-02-07T11:43:19.238Z,1.65
2024-02-07T11:45:45.822Z,1.20
2024-02-07T11:48:21.319Z,1.13
2024-02-07T11:50:48.541Z,1.13
2024-02-07T11:53:28.373Z,1.40
2024-02-07T11:55:55.167Z,1.20
2024-02-07T11:58:24.401Z,1.00
2024-02-07T12:00:51.593Z,1.00
2024-02-07T12:03:19.344Z,0.90
2024-02-07T12:05:47.250Z,0.95
2024-02-07T12:08:17.376Z,0.80
2024-02-07T12:10:44.340Z,1.00
2024-02-07T12:13:11.813Z,0.80
2024-02-07T12:15:38.536Z,0.80
2024-02-07T12:18:08.650Z,1.02
2024-02-07T12:20:35.613Z,1.02
2024-02-07T12:23:02.759Z,0.90
2024-02-07T12:25:30.191Z,0.90
2024-02-07T12:27:56.702Z,0.82
2024-02-07T12:30:23.220Z,0.90
2024-02-07T12:32:50.318Z,0.88
2024-02-07T12:35:18.627Z,0.98
2024-02-07T12:37:45.239Z,0.80
2024-02-07T12:40:14.627Z,1.00
2024-02-07T12:42:41.366Z,0.98
2024-02-07T12:45:11.243Z,0.90
2024-02-07T12:47:37.952Z,0.90
2024-02-07T12:50:05.109Z,2.33
2024-02-07T12:52:31.705Z,1.30
2024-02-07T12:54:58.233Z,0.80
2024-02-07T12:57:26.540Z,0.90
2024-02-07T12:59:54.391Z,1.00
2024-02-07T13:02:21.431Z,1.03
2024-02-07T13:04:48.262Z,0.80
2024-02-07T13:07:16.712Z,0.90
2024-02-07T13:09:45.312Z,0.90
2024-02-07T13:12:19.391Z,2.60
2024-02-07T13:14:54.076Z,1.70
2024-02-07T13:17:20.655Z,1.08
2024-02-07T13:19:47.292Z,0.90
2024-02-07T13:22:16.121Z,1.30
2024-02-07T13:24:43.202Z,1.00
2024-02-07T13:27:09.833Z,1.00
2024-02-07T13:29:40.527Z,0.80
2024-02-07T13:32:11.325Z,1.02
2024-02-07T13:34:38.406Z,1.00
2024-02-07T13:37:05.866Z,1.20
2024-02-07T13:39:32.438Z,0.80
2024-02-07T13:41:59.076Z,1.00
2024-02-07T13:44:25.913Z,0.80
2024-02-07T13:46:52.684Z,1.40
2024-02-07T13:49:19.454Z,13.18
2024-02-07T13:51:46.285Z,1.37
2024-02-07T13:54:15.199Z,0.90
2024-02-07T13:56:42.215Z,1.20
2024-02-07T13:59:09.062Z,1.20
2024-02-07T14:01:36.214Z,1.20
2024-02-07T14:04:05.388Z,0.90
2024-02-07T14:06:33.018Z,0.90
2024-02-07T14:09:00.508Z,1.40
2024-02-07T14:11:27.325Z,1.67
2024-02-07T14:13:54.133Z,1.17
2024-02-07T14:16:20.933Z,1.13
2024-02-07T14:18:47.874Z,1.50
2024-02-07T14:21:14.392Z,1.50
2024-02-07T14:23:41.102Z,1.30
2024-02-07T14:26:08.025Z,1.10
2024-02-07T14:28:35.520Z,1.00
2024-02-07T14:31:02.248Z,1.00
2024-02-07T14:33:29.034Z,1.13
2024-02-07T14:35:55.843Z,1.10
2024-02-07T14:38:24.298Z,0.90
2024-02-07T14:40:50.968Z,1.03
2024-02-07T14:43:17.953Z,1.10
2024-02-07T14:45:44.588Z,1.27
2024-02-07T14:48:11.642Z,1.13
2024-02-07T14:50:41.333Z,1.05
2024-02-07T14:53:08.627Z,1.10
2024-02-07T14:55:35.455Z,0.88
2024-02-07T14:58:02.092Z,0.80
2024-02-07T15:00:28.759Z,1.25
2024-02-07T15:02:55.475Z,1.00
2024-02-07T15:05:23.353Z,0.80
2024-02-07T15:07:51.343Z,0.90
2024-02-07T15:10:18.150Z,0.90
2024-02-07T15:12:44.889Z,0.90
2024-02-07T15:15:11.578Z,0.88
2024-02-07T15:17:40.486Z,2.67
2024-02-07T15:20:08.285Z,1.27
2024-02-07T15:22:35.067Z,0.80
2024-02-07T15:25:01.709Z,1.02
2024-02-07T15:27:28.184Z,1.50
2024-02-07T15:29:54.654Z,3.60
2024-02-07T15:32:21.313Z,2.38
2024-02-07T15:34:47.883Z,1.77
2024-02-07T15:37:14.834Z,1.48
2024-02-07T15:39:43.302Z,1.27
2024-02-07T15:42:10.164Z,1.40
2024-02-07T15:44:36.713Z,1.10
2024-02-07T15:47:03.660Z,1.13
2024-02-07T15:49:30.498Z,1.10
2024-02-07T15:51:57.136Z,1.02
2024-02-07T15:54:23.745Z,1.00
2024-02-07T15:57:00.459Z,1.08
2024-02-07T15:59:27.031Z,1.00
2024-02-07T16:01:55.038Z,0.90
2024-02-07T16:04:22.698Z,0.88
2024-02-07T16:06:49.474Z,1.30
2024-02-07T16:09:17.474Z,1.10
2024-02-07T16:11:44.221Z,1.00
2024-02-07T16:14:11.725Z,1.00
2024-02-07T16:16:42.154Z,1.00
2024-02-07T16:19:09.134Z,0.83
2024-02-07T16:21:35.755Z,1.00
2024-02-07T16:24:02.334Z,1.10
2024-02-07T16:26:28.847Z,1.13
2024-02-07T16:28:55.414Z,1.15
2024-02-07T16:31:22.156Z,1.00
2024-02-07T16:33:48.805Z,1.08
2024-02-07T16:36:16.299Z,1.15
2024-02-07T16:38:42.877Z,1.00
2024-02-07T16:41:10.728Z,1.00
2024-02-07T16:43:37.712Z,1.30
2024-02-07T16:46:04.468Z,2.20
2024-02-07T16:48:31.150Z,1.58
2024-02-07T16:50:57.776Z,1.10
2024-02-07T16:53:24.230Z,1.27
2024-02-07T16:55:52.052Z,1.60
2024-02-07T16:58:18.818Z,1.90
2024-02-07T17:00:47.456Z,3.38
2024-02-07T17:03:14.229Z,2.83
2024-02-07T17:05:41.849Z,1.85
2024-02-07T17:08:09.115Z,1.40
2024-02-07T17:10:35.850Z,1.40
2024-02-07T17:13:02.420Z,2.20
2024-02-07T17:15:28.963Z,1.70
2024-02-07T17:17:57.010Z,5.13
2024-02-07T17:20:24.296Z,5.60
2024-02-07T17:22:51.167Z,10.88
2024-02-07T17:25:18.269Z,1.70
2024-02-07T17:27:44.987Z,9.10
2024-02-07T17:30:18.168Z,3.58
2024-02-07T17:32:52.162Z,4.83
2024-02-07T17:35:19.761Z,4.30
2024-02-07T17:37:46.317Z,4.97
2024-02-07T17:40:12.926Z,5.65
2024-02-07T17:42:39.388Z,5.00
2024-02-07T17:45:06.103Z,3.00
2024-02-07T17:47:32.682Z,1.80
2024-02-07T17:49:59.340Z,2.10
2024-02-07T17:52:25.934Z,1.95
2024-02-07T17:54:52.562Z,2.35
2024-02-07T17:57:19.139Z,2.30
2024-02-07T17:59:45.697Z,5.30
2024-02-07T18:02:12.700Z,10.98
2024-02-07T18:04:39.459Z,3.40
2024-02-07T18:07:06.306Z,2.80
2024-02-07T18:09:33.015Z,2.20
2024-02-07T18:11:59.586Z,1.63
2024-02-07T18:14:26.204Z,2.65
2024-02-07T18:16:52.777Z,2.30
2024-02-07T18:19:19.673Z,2.20
2024-02-07T18:21:46.328Z,2.37
2024-02-07T18:24:18.007Z,2.42
2024-02-07T18:26:47.786Z,3.40
2024-02-07T18:29:15.415Z,3.33
2024-02-07T18:31:42.480Z,3.40
2024-02-07T18:34:09.554Z,2.03
2024-02-07T18:36:38.126Z,2.85
2024-02-07T18:39:05.677Z,2.80
2024-02-07T18:41:33.444Z,7.35
2024-02-07T18:44:00.225Z,2.60
2024-02-07T18:46:26.954Z,3.20
2024-02-07T18:48:53.595Z,2.63
2024-02-07T18:51:27.404Z,2.03
2024-02-07T18:54:15.610Z,2.00
2024-02-07T18:56:44.828Z,2.20
2024-02-07T18:59:13.646Z,2.20
2024-02-07T19:01:40.445Z,2.20
2024-02-07T19:04:07.125Z,2.60
2024-02-07T19:06:33.826Z,2.08
2024-02-07T19:09:00.658Z,1.88
2024-02-07T19:11:27.220Z,1.77
2024-02-07T19:13:55.254Z,2.00
2024-02-07T19:16:24.747Z,2.00
2024-02-07T19:18:51.714Z,1.95
2024-02-07T19:21:21.171Z,2.00
2024-02-07T19:23:48.222Z,2.40
2024-02-07T19:26:14.965Z,2.83
2024-02-07T19:28:44.911Z,2.60
2024-02-07T19:31:12.419Z,6.47
2024-02-07T19:33:39.328Z,3.05
2024-02-07T19:36:06.704Z,2.80
2024-02-07T19:38:33.257Z,3.20
2024-02-07T19:40:59.973Z,3.00
2024-02-07T19:43:26.596Z,12.88
2024-02-07T19:45:53.078Z,3.97
2024-02-07T19:48:19.836Z,2.73
2024-02-07T19:50:47.821Z,3.20
2024-02-07T19:53:14.401Z,2.70
2024-02-07T19:55:41.370Z,3.70
2024-02-07T19:58:10.262Z,3.65
2024-02-07T20:00:36.780Z,4.37
2024-02-07T20:03:03.476Z,3.95
2024-02-07T20:05:30.130Z,3.20
2024-02-07T20:07:56.800Z,3.17
2024-02-07T20:10:26.696Z,3.30
2024-02-07T20:12:53.190Z,4.07
2024-02-07T20:15:19.730Z,3.15
2024-02-07T20:17:48.176Z,3.30
2024-02-07T20:20:18.164Z,3.15
2024-02-07T20:22:44.753Z,3.70
2024-02-07T20:25:13.232Z,3.60
2024-02-07T20:27:40.196Z,4.25
2024-02-07T20:30:07.406Z,4.57
2024-02-07T20:32:33.941Z,3.67
2024-02-07T20:35:00.926Z,3.78
2024-02-07T20:37:27.635Z,3.83
2024-02-07T20:39:54.325Z,3.33
2024-02-07T20:42:20.824Z,3.50
2024-02-07T20:44:47.391Z,3.25
2024-02-07T20:47:14.033Z,3.58
2024-02-07T20:49:40.991Z,3.20
2024-02-07T20:52:07.521Z,3.20
2024-02-07T20:54:34.221Z,3.88
2024-02-07T20:57:00.880Z,3.47
2024-02-07T20:59:27.407Z,3.45
2024-02-07T21:01:53.953Z,3.10
2024-02-07T21:04:20.707Z,2.70
2024-02-07T21:06:48.524Z,2.70
2024-02-07T21:09:15.142Z,2.80
2024-02-07T21:11:41.816Z,2.50
2024-02-07T21:14:08.912Z,2.07
2024-02-07T21:16:35.718Z,2.72
2024-02-07T21:19:02.277Z,2.83
2024-02-07T21:21:29.372Z,12.82
2024-02-07T21:23:55.921Z,10.25
2024-02-07T21:26:22.472Z,7.10
2024-02-07T21:28:49.157Z,4.45
2024-02-07T21:31:15.734Z,6.32
2024-02-07T21:33:42.551Z,3.55
2024-02-07T21:36:09.276Z,3.10
2024-02-07T21:38:35.980Z,5.50
2024-02-07T21:41:02.614Z,7.10
2024-02-07T21:43:29.260Z,4.97
2024-02-07T21:45:55.837Z,3.70
2024-02-07T21:48:23.757Z,6.50
2024-02-07T21:50:50.333Z,10.67
2024-02-07T21:53:16.848Z,6.05
2024-02-07T21:55:43.409Z,3.58
2024-02-07T21:58:16.089Z,2.55
2024-02-07T22:00:42.613Z,2.78
2024-02-07T22:03:09.073Z,2.47
2024-02-07T22:05:36.448Z,2.40
2024-02-07T22:08:03.909Z,2.50
2024-02-07T22:10:31.378Z,2.38
2024-02-07T22:12:57.922Z,2.40
2024-02-07T22:15:24.476Z,2.13
2024-02-07T22:17:51.003Z,2.60
2024-02-07T22:20:17.617Z,2.80
2024-02-07T22:22:44.174Z,2.72
2024-02-07T22:25:10.933Z,2.63
2024-02-07T22:27:37.751Z,2.53
2024-02-07T22:30:04.961Z,2.85
2024-02-07T22:32:31.638Z,2.58
2024-02-07T22:34:58.460Z,2.50
2024-02-07T22:37:25.828Z,2.60
2024-02-07T22:39:52.835Z,5.97
2024-02-07T22:42:19.434Z,2.42
2024-02-07T22:44:46.000Z,2.83
2024-02-07T22:47:15.257Z,1.95
2024-02-07T22:49:41.974Z,2.00
2024-02-07T22:52:08.759Z,3.00
2024-02-07T22:54:35.348Z,2.10
2024-02-07T22:57:03.466Z,2.72
2024-02-07T22:59:30.233Z,2.10
2024-02-07T23:01:56.845Z,1.80
2024-02-07T23:04:23.477Z,1.60
2024-02-07T23:06:52.212Z,1.80
2024-02-07T23:09:18.677Z,1.80
2024-02-07T23:11:45.729Z,1.80
2024-02-07T23:14:12.355Z,1.80
2024-02-07T23:16:39.220Z,1.60
2024-02-07T23:19:05.731Z,1.77
2024-02-07T23:21:32.264Z,2.20
2024-02-07T23:23:58.759Z,1.98
2024-02-07T23:26:25.273Z,2.45
2024-02-07T23:28:51.801Z,2.23
2024-02-07T23:31:18.262Z,1.98
2024-02-07T23:33:44.797Z,1.92
2024-02-07T23:36:11.419Z,1.80
2024-02-07T23:38:39.624Z,2.70
2024-02-07T23:41:07.259Z,3.23
2024-02-07T23:43:35.518Z,2.80
2024-02-07T23:46:05.081Z,2.45
2024-02-07T23:48:31.731Z,2.50
2024-02-07T23:50:58.316Z,2.58
2024-02-07T23:53:24.927Z,4.23
2024-02-07T23:55:51.904Z,2.60
2024-02-07T23:58:18.415Z,2.55
